sensor_id;sensor_type;location;lat;lon;timestamp;P1;durP1;ratioP1;P2;durP2;ratioP2
45392;SDS011;31129;44.810;10.334;2023-06-04T00:01:06;17.10;;;15.30;;
45392;SDS011;31129;44.810;10.334;2023-06-04T00:03:31;25.00;;;15.75;;
45392;SDS011;31129;44.810;10.334;2023-06-04T00:05:57;23.65;;;16.58;;
45392;SDS011;31129;44.810;10.334;2023-06-04T00:08:23;19.13;;;15.27;;
45392;SDS011;31129;44.810;10.334;2023-06-04T00:10:48;16.35;;;14.02;;
45392;SDS011;31129;44.810;10.334;2023-06-04T00:13:17;27.70;;;16.55;;
45392;SDS011;31129;44.810;10.334;2023-06-04T00:15:42;19.08;;;14.23;;
45392;SDS011;31129;44.810;10.334;2023-06-04T00:18:08;23.05;;;15.55;;
45392;SDS011;31129;44.810;10.334;2023-06-04T00:20:36;22.63;;;17.42;;
45392;SDS011;31129;44.810;10.334;2023-06-04T00:23:02;25.05;;;16.83;;
45392;SDS011;31129;44.810;10.334;2023-06-04T00:25:28;24.55;;;17.05;;
45392;SDS011;31129;44.810;10.334;2023-06-04T00:27:53;21.42;;;16.73;;
45392;SDS011;31129;44.810;10.334;2023-06-04T00:30:22;23.95;;;16.58;;
45392;SDS011;31129;44.810;10.334;2023-06-04T00:32:47;25.45;;;18.13;;
45392;SDS011;31129;44.810;10.334;2023-06-04T00:35:13;22.92;;;18.02;;
45392;SDS011;31129;44.810;10.334;2023-06-04T00:37:38;23.80;;;17.55;;
45392;SDS011;31129;44.810;10.334;2023-06-04T00:40:05;23.05;;;17.90;;
45392;SDS011;31129;44.810;10.334;2023-06-04T00:42:31;25.42;;;18.60;;
45392;SDS011;31129;44.810;10.334;2023-06-04T00:44:57;21.00;;;16.92;;
45392;SDS011;31129;44.810;10.334;2023-06-04T00:47:23;22.90;;;17.27;;
45392;SDS011;31129;44.810;10.334;2023-06-04T00:49:49;23.75;;;18.70;;
45392;SDS011;31129;44.810;10.334;2023-06-04T00:52:19;23.23;;;18.08;;
45392;SDS011;31129;44.810;10.334;2023-06-04T00:54:44;26.50;;;19.05;;
45392;SDS011;31129;44.810;10.334;2023-06-04T00:57:10;24.05;;;17.95;;
45392;SDS011;31129;44.810;10.334;2023-06-04T00:59:36;28.55;;;20.35;;
45392;SDS011;31129;44.810;10.334;2023-06-04T01:02:17;26.63;;;19.23;;
45392;SDS011;31129;44.810;10.334;2023-06-04T01:07:42;19.80;;;14.65;;
45392;SDS011;31129;44.810;10.334;2023-06-04T01:10:12;22.67;;;15.20;;
45392;SDS011;31129;44.810;10.334;2023-06-04T01:12:39;22.65;;;14.63;;
45392;SDS011;31129;44.810;10.334;2023-06-04T01:15:08;18.00;;;14.75;;
45392;SDS011;31129;44.810;10.334;2023-06-04T01:17:37;23.73;;;15.18;;
45392;SDS011;31129;44.810;10.334;2023-06-04T01:25:21;20.83;;;15.35;;
45392;SDS011;31129;44.810;10.334;2023-06-04T01:27:53;20.23;;;16.27;;
45392;SDS011;31129;44.810;10.334;2023-06-04T01:30:28;19.08;;;16.33;;
45392;SDS011;31129;44.810;10.334;2023-06-04T01:32:55;27.77;;;19.17;;
45392;SDS011;31129;44.810;10.334;2023-06-04T01:35:21;22.23;;;18.92;;
45392;SDS011;31129;44.810;10.334;2023-06-04T01:37:47;23.23;;;18.52;;
45392;SDS011;31129;44.810;10.334;2023-06-04T01:40:14;23.77;;;18.88;;
45392;SDS011;31129;44.810;10.334;2023-06-04T01:42:40;25.00;;;18.75;;
45392;SDS011;31129;44.810;10.334;2023-06-04T01:45:07;25.80;;;18.83;;
45392;SDS011;31129;44.810;10.334;2023-06-04T01:47:33;24.90;;;19.77;;
45392;SDS011;31129;44.810;10.334;2023-06-04T01:49:59;29.90;;;20.17;;
45392;SDS011;31129;44.810;10.334;2023-06-04T01:52:25;28.58;;;20.65;;
45392;SDS011;31129;44.810;10.334;2023-06-04T01:54:50;30.55;;;21.65;;
45392;SDS011;31129;44.810;10.334;2023-06-04T01:57:21;30.58;;;22.05;;
45392;SDS011;31129;44.810;10.334;2023-06-04T01:59:47;32.83;;;23.92;;
45392;SDS011;31129;44.810;10.334;2023-06-04T02:02:13;29.42;;;23.08;;
45392;SDS011;31129;44.810;10.334;2023-06-04T02:04:39;27.25;;;21.35;;
45392;SDS011;31129;44.810;10.334;2023-06-04T02:07:10;32.50;;;25.53;;
45392;SDS011;31129;44.810;10.334;2023-06-04T02:09:36;28.70;;;22.42;;
45392;SDS011;31129;44.810;10.334;2023-06-04T02:12:02;34.22;;;26.20;;
45392;SDS011;31129;44.810;10.334;2023-06-04T02:14:29;33.40;;;25.52;;
45392;SDS011;31129;44.810;10.334;2023-06-04T02:16:54;31.65;;;25.83;;
45392;SDS011;31129;44.810;10.334;2023-06-04T02:19:23;32.95;;;25.13;;
45392;SDS011;31129;44.810;10.334;2023-06-04T02:21:51;32.85;;;26.67;;
45392;SDS011;31129;44.810;10.334;2023-06-04T02:24:17;37.03;;;26.48;;
45392;SDS011;31129;44.810;10.334;2023-06-04T02:26:42;39.03;;;26.13;;
45392;SDS011;31129;44.810;10.334;2023-06-04T02:29:08;32.90;;;25.85;;
45392;SDS011;31129;44.810;10.334;2023-06-04T02:31:33;34.50;;;25.35;;
45392;SDS011;31129;44.810;10.334;2023-06-04T02:33:59;33.58;;;26.75;;
45392;SDS011;31129;44.810;10.334;2023-06-04T02:36:24;31.60;;;24.30;;
45392;SDS011;31129;44.810;10.334;2023-06-04T02:38:50;34.55;;;26.23;;
45392;SDS011;31129;44.810;10.334;2023-06-04T02:41:16;39.03;;;28.70;;
45392;SDS011;31129;44.810;10.334;2023-06-04T02:43:44;37.47;;;28.48;;
45392;SDS011;31129;44.810;10.334;2023-06-04T02:46:10;38.00;;;27.83;;
45392;SDS011;31129;44.810;10.334;2023-06-04T02:48:35;33.47;;;26.05;;
45392;SDS011;31129;44.810;10.334;2023-06-04T02:51:01;32.25;;;24.38;;
45392;SDS011;31129;44.810;10.334;2023-06-04T02:53:26;34.53;;;25.02;;
45392;SDS011;31129;44.810;10.334;2023-06-04T02:55:55;37.63;;;23.77;;
45392;SDS011;31129;44.810;10.334;2023-06-04T02:58:21;37.45;;;23.08;;
45392;SDS011;31129;44.810;10.334;2023-06-04T03:00:51;28.67;;;22.75;;
45392;SDS011;31129;44.810;10.334;2023-06-04T03:03:18;31.60;;;21.52;;
45392;SDS011;31129;44.810;10.334;2023-06-04T03:05:43;36.47;;;21.23;;
45392;SDS011;31129;44.810;10.334;2023-06-04T03:08:09;24.45;;;18.50;;
45392;SDS011;31129;44.810;10.334;2023-06-04T03:10:34;24.42;;;17.42;;
45392;SDS011;31129;44.810;10.334;2023-06-04T03:13:00;25.48;;;16.70;;
45392;SDS011;31129;44.810;10.334;2023-06-04T03:15:25;22.80;;;16.92;;
45392;SDS011;31129;44.810;10.334;2023-06-04T03:17:51;24.60;;;15.73;;
45392;SDS011;31129;44.810;10.334;2023-06-04T03:20:16;23.88;;;15.30;;
45392;SDS011;31129;44.810;10.334;2023-06-04T03:22:42;19.88;;;11.70;;
45392;SDS011;31129;44.810;10.334;2023-06-04T03:25:11;15.88;;;9.48;;
45392;SDS011;31129;44.810;10.334;2023-06-04T03:27:36;14.68;;;9.05;;
45392;SDS011;31129;44.810;10.334;2023-06-04T03:30:03;15.40;;;9.67;;
45392;SDS011;31129;44.810;10.334;2023-06-04T03:32:39;16.58;;;8.95;;
45392;SDS011;31129;44.810;10.334;2023-06-04T03:35:05;16.48;;;9.55;;
45392;SDS011;31129;44.810;10.334;2023-06-04T03:37:31;12.07;;;8.90;;
45392;SDS011;31129;44.810;10.334;2023-06-04T03:39:58;15.73;;;9.05;;
45392;SDS011;31129;44.810;10.334;2023-06-04T03:42:23;12.20;;;9.68;;
45392;SDS011;31129;44.810;10.334;2023-06-04T03:44:49;18.95;;;9.55;;
45392;SDS011;31129;44.810;10.334;2023-06-04T03:47:14;16.48;;;9.90;;
45392;SDS011;31129;44.810;10.334;2023-06-04T03:49:43;17.95;;;11.23;;
45392;SDS011;31129;44.810;10.334;2023-06-04T03:52:09;20.13;;;11.00;;
45392;SDS011;31129;44.810;10.334;2023-06-04T03:54:36;17.30;;;10.23;;
45392;SDS011;31129;44.810;10.334;2023-06-04T03:57:02;15.48;;;9.82;;
45392;SDS011;31129;44.810;10.334;2023-06-04T03:59:28;17.05;;;9.73;;
45392;SDS011;31129;44.810;10.334;2023-06-04T04:01:54;13.65;;;8.38;;
45392;SDS011;31129;44.810;10.334;2023-06-04T04:04:19;13.45;;;8.88;;
45392;SDS011;31129;44.810;10.334;2023-06-04T04:06:45;18.88;;;9.80;;
45392;SDS011;31129;44.810;10.334;2023-06-04T04:09:11;12.55;;;9.48;;
45392;SDS011;31129;44.810;10.334;2023-06-04T04:11:36;21.98;;;14.63;;
45392;SDS011;31129;44.810;10.334;2023-06-04T04:14:05;23.63;;;16.80;;
45392;SDS011;31129;44.810;10.334;2023-06-04T04:16:32;27.65;;;19.83;;
45392;SDS011;31129;44.810;10.334;2023-06-04T04:18:58;28.50;;;20.27;;
45392;SDS011;31129;44.810;10.334;2023-06-04T04:21:23;28.77;;;22.33;;
45392;SDS011;31129;44.810;10.334;2023-06-04T04:23:49;37.55;;;22.55;;
45392;SDS011;31129;44.810;10.334;2023-06-04T04:26:17;33.63;;;23.30;;
45392;SDS011;31129;44.810;10.334;2023-06-04T04:28:46;36.35;;;25.48;;
45392;SDS011;31129;44.810;10.334;2023-06-04T04:31:11;35.22;;;26.00;;
45392;SDS011;31129;44.810;10.334;2023-06-04T04:33:37;35.75;;;26.80;;
45392;SDS011;31129;44.810;10.334;2023-06-04T04:36:07;40.38;;;27.02;;
45392;SDS011;31129;44.810;10.334;2023-06-04T04:38:40;38.53;;;27.23;;
45392;SDS011;31129;44.810;10.334;2023-06-04T04:41:06;41.40;;;27.75;;
45392;SDS011;31129;44.810;10.334;2023-06-04T04:43:33;51.67;;;31.67;;
45392;SDS011;31129;44.810;10.334;2023-06-04T04:46:07;37.03;;;28.00;;
45392;SDS011;31129;44.810;10.334;2023-06-04T04:48:33;42.08;;;29.25;;
45392;SDS011;31129;44.810;10.334;2023-06-04T04:50:59;39.35;;;28.15;;
45392;SDS011;31129;44.810;10.334;2023-06-04T04:53:25;44.95;;;29.15;;
45392;SDS011;31129;44.810;10.334;2023-06-04T04:55:51;46.90;;;32.35;;
45392;SDS011;31129;44.810;10.334;2023-06-04T04:58:20;48.10;;;33.15;;
45392;SDS011;31129;44.810;10.334;2023-06-04T05:00:46;43.45;;;25.52;;
45392;SDS011;31129;44.810;10.334;2023-06-04T05:03:13;41.97;;;27.92;;
45392;SDS011;31129;44.810;10.334;2023-06-04T05:05:39;40.13;;;28.85;;
45392;SDS011;31129;44.810;10.334;2023-06-04T05:08:05;42.15;;;30.88;;
45392;SDS011;31129;44.810;10.334;2023-06-04T05:10:35;47.65;;;30.88;;
45392;SDS011;31129;44.810;10.334;2023-06-04T05:13:03;35.45;;;25.85;;
45392;SDS011;31129;44.810;10.334;2023-06-04T05:15:50;41.78;;;29.65;;
45392;SDS011;31129;44.810;10.334;2023-06-04T05:18:19;30.80;;;22.67;;
45392;SDS011;31129;44.810;10.334;2023-06-04T05:20:57;32.97;;;23.35;;
45392;SDS011;31129;44.810;10.334;2023-06-04T05:23:26;32.58;;;23.08;;
45392;SDS011;31129;44.810;10.334;2023-06-04T05:25:52;37.85;;;25.33;;
45392;SDS011;31129;44.810;10.334;2023-06-04T05:28:21;36.45;;;24.10;;
45392;SDS011;31129;44.810;10.334;2023-06-04T05:30:53;30.42;;;22.45;;
45392;SDS011;31129;44.810;10.334;2023-06-04T05:33:27;33.80;;;21.73;;
45392;SDS011;31129;44.810;10.334;2023-06-04T05:35:58;31.38;;;20.50;;
45392;SDS011;31129;44.810;10.334;2023-06-04T05:38:25;23.20;;;17.70;;
45392;SDS011;31129;44.810;10.334;2023-06-04T05:40:53;29.95;;;18.52;;
45392;SDS011;31129;44.810;10.334;2023-06-04T05:43:19;33.55;;;19.63;;
45392;SDS011;31129;44.810;10.334;2023-06-04T05:45:46;30.13;;;18.88;;
45392;SDS011;31129;44.810;10.334;2023-06-04T05:48:11;28.50;;;19.83;;
45392;SDS011;31129;44.810;10.334;2023-06-04T05:50:37;31.92;;;18.67;;
45392;SDS011;31129;44.810;10.334;2023-06-04T05:53:03;24.50;;;17.80;;
45392;SDS011;31129;44.810;10.334;2023-06-04T05:55:28;26.25;;;18.98;;
45392;SDS011;31129;44.810;10.334;2023-06-04T05:57:54;27.70;;;20.08;;
45392;SDS011;31129;44.810;10.334;2023-06-04T06:00:23;25.15;;;17.00;;
45392;SDS011;31129;44.810;10.334;2023-06-04T06:02:49;23.65;;;15.75;;
45392;SDS011;31129;44.810;10.334;2023-06-04T06:05:37;21.45;;;15.07;;
45392;SDS011;31129;44.810;10.334;2023-06-04T06:08:03;20.05;;;16.40;;
45392;SDS011;31129;44.810;10.334;2023-06-04T06:10:29;24.02;;;14.25;;
45392;SDS011;31129;44.810;10.334;2023-06-04T06:12:55;25.05;;;13.27;;
45392;SDS011;31129;44.810;10.334;2023-06-04T06:15:21;16.17;;;12.90;;
45392;SDS011;31129;44.810;10.334;2023-06-04T06:17:48;14.13;;;12.37;;
45392;SDS011;31129;44.810;10.334;2023-06-04T06:20:13;15.20;;;10.93;;
45392;SDS011;31129;44.810;10.334;2023-06-04T06:22:43;17.67;;;10.13;;
45392;SDS011;31129;44.810;10.334;2023-06-04T06:25:09;21.00;;;14.45;;
45392;SDS011;31129;44.810;10.334;2023-06-04T06:27:42;15.52;;;10.57;;
45392;SDS011;31129;44.810;10.334;2023-06-04T06:30:09;17.05;;;13.55;;
45392;SDS011;31129;44.810;10.334;2023-06-04T06:32:35;25.95;;;14.45;;
45392;SDS011;31129;44.810;10.334;2023-06-04T06:35:00;18.50;;;13.30;;
45392;SDS011;31129;44.810;10.334;2023-06-04T06:37:29;17.20;;;13.15;;
45392;SDS011;31129;44.810;10.334;2023-06-04T06:39:57;20.02;;;14.23;;
45392;SDS011;31129;44.810;10.334;2023-06-04T06:42:23;22.50;;;14.55;;
45392;SDS011;31129;44.810;10.334;2023-06-04T06:44:51;20.55;;;13.63;;
45392;SDS011;31129;44.810;10.334;2023-06-04T06:47:16;23.38;;;16.20;;
45392;SDS011;31129;44.810;10.334;2023-06-04T06:49:41;27.15;;;15.75;;
45392;SDS011;31129;44.810;10.334;2023-06-04T06:52:07;31.48;;;20.50;;
45392;SDS011;31129;44.810;10.334;2023-06-04T06:54:33;24.27;;;19.45;;
45392;SDS011;31129;44.810;10.334;2023-06-04T06:56:58;24.90;;;20.65;;
45392;SDS011;31129;44.810;10.334;2023-06-04T06:59:24;31.48;;;21.23;;
45392;SDS011;31129;44.810;10.334;2023-06-04T07:01:50;38.33;;;22.50;;
45392;SDS011;31129;44.810;10.334;2023-06-04T07:04:19;27.25;;;19.60;;
45392;SDS011;31129;44.810;10.334;2023-06-04T07:06:44;25.00;;;19.45;;
45392;SDS011;31129;44.810;10.334;2023-06-04T07:09:12;25.55;;;19.20;;
45392;SDS011;31129;44.810;10.334;2023-06-04T07:11:41;25.65;;;19.20;;
45392;SDS011;31129;44.810;10.334;2023-06-04T07:14:06;27.55;;;21.10;;
45392;SDS011;31129;44.810;10.334;2023-06-04T07:16:32;25.33;;;19.73;;
45392;SDS011;31129;44.810;10.334;2023-06-04T07:18:58;33.35;;;21.08;;
45392;SDS011;31129;44.810;10.334;2023-06-04T07:21:26;25.23;;;17.42;;
45392;SDS011;31129;44.810;10.334;2023-06-04T07:23:52;25.65;;;20.35;;
45392;SDS011;31129;44.810;10.334;2023-06-04T07:26:17;22.48;;;19.15;;
45392;SDS011;31129;44.810;10.334;2023-06-04T07:28:43;19.95;;;14.27;;
45392;SDS011;31129;44.810;10.334;2023-06-04T07:31:09;24.63;;;16.42;;
45392;SDS011;31129;44.810;10.334;2023-06-04T07:33:35;25.17;;;18.17;;
45392;SDS011;31129;44.810;10.334;2023-06-04T07:36:14;24.90;;;17.73;;
45392;SDS011;31129;44.810;10.334;2023-06-04T07:38:39;21.77;;;18.20;;
45392;SDS011;31129;44.810;10.334;2023-06-04T07:41:05;21.65;;;16.20;;
45392;SDS011;31129;44.810;10.334;2023-06-04T07:43:32;21.40;;;17.33;;
45392;SDS011;31129;44.810;10.334;2023-06-04T07:45:59;25.83;;;19.50;;
45392;SDS011;31129;44.810;10.334;2023-06-04T07:48:25;20.95;;;16.92;;
45392;SDS011;31129;44.810;10.334;2023-06-04T07:50:58;18.00;;;15.48;;
45392;SDS011;31129;44.810;10.334;2023-06-04T07:53:25;19.90;;;16.20;;
45392;SDS011;31129;44.810;10.334;2023-06-04T07:55:50;23.52;;;16.38;;
45392;SDS011;31129;44.810;10.334;2023-06-04T07:58:16;24.30;;;15.23;;
45392;SDS011;31129;44.810;10.334;2023-06-04T08:00:42;24.75;;;19.42;;
45392;SDS011;31129;44.810;10.334;2023-06-04T08:03:07;22.00;;;17.77;;
45392;SDS011;31129;44.810;10.334;2023-06-04T08:05:33;25.30;;;20.00;;
45392;SDS011;31129;44.810;10.334;2023-06-04T08:07:59;19.77;;;15.40;;
45392;SDS011;31129;44.810;10.334;2023-06-04T08:10:25;21.30;;;14.70;;
45392;SDS011;31129;44.810;10.334;2023-06-04T08:12:50;20.63;;;16.25;;
45392;SDS011;31129;44.810;10.334;2023-06-04T08:15:16;25.42;;;15.88;;
45392;SDS011;31129;44.810;10.334;2023-06-04T08:17:41;19.60;;;16.48;;
45392;SDS011;31129;44.810;10.334;2023-06-04T08:20:07;20.08;;;15.80;;
45392;SDS011;31129;44.810;10.334;2023-06-04T08:22:36;17.50;;;15.52;;
45392;SDS011;31129;44.810;10.334;2023-06-04T08:25:01;19.40;;;15.27;;
45392;SDS011;31129;44.810;10.334;2023-06-04T08:27:28;21.30;;;16.45;;
45392;SDS011;31129;44.810;10.334;2023-06-04T08:29:54;18.77;;;16.05;;
45392;SDS011;31129;44.810;10.334;2023-06-04T08:32:20;21.73;;;18.35;;
45392;SDS011;31129;44.810;10.334;2023-06-04T08:34:45;23.58;;;18.83;;
45392;SDS011;31129;44.810;10.334;2023-06-04T08:37:11;21.23;;;18.23;;
45392;SDS011;31129;44.810;10.334;2023-06-04T08:39:37;19.95;;;17.80;;
45392;SDS011;31129;44.810;10.334;2023-06-04T08:42:27;22.17;;;18.20;;
45392;SDS011;31129;44.810;10.334;2023-06-04T08:44:54;22.02;;;18.10;;
45392;SDS011;31129;44.810;10.334;2023-06-04T08:47:22;19.88;;;16.40;;
45392;SDS011;31129;44.810;10.334;2023-06-04T08:49:50;29.90;;;16.35;;
45392;SDS011;31129;44.810;10.334;2023-06-04T08:52:17;27.27;;;17.13;;
45392;SDS011;31129;44.810;10.334;2023-06-04T08:54:48;21.73;;;17.77;;
45392;SDS011;31129;44.810;10.334;2023-06-04T08:57:16;20.48;;;17.33;;
45392;SDS011;31129;44.810;10.334;2023-06-04T08:59:43;19.50;;;15.98;;
45392;SDS011;31129;44.810;10.334;2023-06-04T09:02:10;20.67;;;15.02;;
45392;SDS011;31129;44.810;10.334;2023-06-04T09:04:38;19.17;;;16.05;;
45392;SDS011;31129;44.810;10.334;2023-06-04T09:07:04;22.27;;;16.98;;
45392;SDS011;31129;44.810;10.334;2023-06-04T09:09:31;21.05;;;17.73;;
45392;SDS011;31129;44.810;10.334;2023-06-04T09:11:59;17.92;;;14.40;;
45392;SDS011;31129;44.810;10.334;2023-06-04T09:14:31;17.80;;;13.77;;
45392;SDS011;31129;44.810;10.334;2023-06-04T09:16:56;17.15;;;14.52;;
45392;SDS011;31129;44.810;10.334;2023-06-04T09:19:24;19.23;;;16.73;;
45392;SDS011;31129;44.810;10.334;2023-06-04T09:21:56;17.77;;;15.98;;
45392;SDS011;31129;44.810;10.334;2023-06-04T09:24:24;18.27;;;16.48;;
45392;SDS011;31129;44.810;10.334;2023-06-04T09:26:51;20.63;;;17.25;;
45392;SDS011;31129;44.810;10.334;2023-06-04T09:29:17;20.95;;;17.98;;
45392;SDS011;31129;44.810;10.334;2023-06-04T09:31:46;22.40;;;17.02;;
45392;SDS011;31129;44.810;10.334;2023-06-04T09:34:12;19.23;;;17.33;;
45392;SDS011;31129;44.810;10.334;2023-06-04T09:36:39;23.50;;;17.80;;
45392;SDS011;31129;44.810;10.334;2023-06-04T09:39:14;18.52;;;16.58;;
45392;SDS011;31129;44.810;10.334;2023-06-04T09:41:41;19.63;;;16.08;;
45392;SDS011;31129;44.810;10.334;2023-06-04T09:44:07;22.95;;;18.45;;
45392;SDS011;31129;44.810;10.334;2023-06-04T09:46:36;20.90;;;18.73;;
45392;SDS011;31129;44.810;10.334;2023-06-04T09:49:02;19.95;;;17.90;;
45392;SDS011;31129;44.810;10.334;2023-06-04T09:51:29;23.65;;;18.42;;
45392;SDS011;31129;44.810;10.334;2023-06-04T09:53:59;22.65;;;17.83;;
45392;SDS011;31129;44.810;10.334;2023-06-04T09:56:26;21.52;;;17.48;;
45392;SDS011;31129;44.810;10.334;2023-06-04T09:58:57;23.65;;;17.42;;
45392;SDS011;31129;44.810;10.334;2023-06-04T10:01:26;19.90;;;17.25;;
45392;SDS011;31129;44.810;10.334;2023-06-04T10:03:54;23.23;;;18.55;;
45392;SDS011;31129;44.810;10.334;2023-06-04T10:06:21;21.80;;;16.35;;
45392;SDS011;31129;44.810;10.334;2023-06-04T10:08:48;19.77;;;17.48;;
45392;SDS011;31129;44.810;10.334;2023-06-04T10:11:17;21.25;;;15.55;;
45392;SDS011;31129;44.810;10.334;2023-06-04T10:16:48;18.00;;;14.13;;
45392;SDS011;31129;44.810;10.334;2023-06-04T10:21:43;18.38;;;15.23;;
45392;SDS011;31129;44.810;10.334;2023-06-04T10:24:09;14.85;;;13.27;;
45392;SDS011;31129;44.810;10.334;2023-06-04T10:26:34;16.38;;;12.52;;
45392;SDS011;31129;44.810;10.334;2023-06-04T10:29:03;17.38;;;12.75;;
45392;SDS011;31129;44.810;10.334;2023-06-04T10:31:31;28.35;;;13.35;;
45392;SDS011;31129;44.810;10.334;2023-06-04T10:33:57;21.40;;;13.60;;
45392;SDS011;31129;44.810;10.334;2023-06-04T10:36:23;14.45;;;11.48;;
45392;SDS011;31129;44.810;10.334;2023-06-04T10:38:50;16.98;;;13.48;;
45392;SDS011;31129;44.810;10.334;2023-06-04T10:41:20;15.07;;;11.98;;
45392;SDS011;31129;44.810;10.334;2023-06-04T10:43:51;16.48;;;13.90;;
45392;SDS011;31129;44.810;10.334;2023-06-04T10:46:20;16.52;;;12.40;;
45392;SDS011;31129;44.810;10.334;2023-06-04T10:48:52;14.45;;;11.77;;
45392;SDS011;31129;44.810;10.334;2023-06-04T10:51:31;18.40;;;12.43;;
45392;SDS011;31129;44.810;10.334;2023-06-04T10:53:59;17.20;;;11.50;;
45392;SDS011;31129;44.810;10.334;2023-06-04T10:56:30;13.93;;;10.60;;
45392;SDS011;31129;44.810;10.334;2023-06-04T10:59:13;17.42;;;10.98;;
45392;SDS011;31129;44.810;10.334;2023-06-04T11:01:39;11.90;;;10.10;;
45392;SDS011;31129;44.810;10.334;2023-06-04T11:04:05;13.68;;;10.70;;
45392;SDS011;31129;44.810;10.334;2023-06-04T11:06:30;16.58;;;9.85;;
45392;SDS011;31129;44.810;10.334;2023-06-04T11:09:04;11.77;;;9.93;;
45392;SDS011;31129;44.810;10.334;2023-06-04T11:11:32;16.55;;;11.60;;
45392;SDS011;31129;44.810;10.334;2023-06-04T11:14:10;15.65;;;10.57;;
45392;SDS011;31129;44.810;10.334;2023-06-04T11:16:39;14.55;;;10.63;;
45392;SDS011;31129;44.810;10.334;2023-06-04T11:19:04;14.65;;;9.55;;
45392;SDS011;31129;44.810;10.334;2023-06-04T11:21:30;17.15;;;10.45;;
45392;SDS011;31129;44.810;10.334;2023-06-04T11:23:58;20.33;;;10.18;;
45392;SDS011;31129;44.810;10.334;2023-06-04T11:26:31;13.30;;;10.75;;
45392;SDS011;31129;44.810;10.334;2023-06-04T11:29:06;15.18;;;10.15;;
45392;SDS011;31129;44.810;10.334;2023-06-04T11:31:46;13.45;;;10.82;;
45392;SDS011;31129;44.810;10.334;2023-06-04T11:34:25;13.00;;;10.07;;
45392;SDS011;31129;44.810;10.334;2023-06-04T11:36:52;12.27;;;10.15;;
45392;SDS011;31129;44.810;10.334;2023-06-04T11:39:21;14.80;;;10.88;;
45392;SDS011;31129;44.810;10.334;2023-06-04T11:41:47;14.75;;;10.95;;
45392;SDS011;31129;44.810;10.334;2023-06-04T11:44:17;11.75;;;8.95;;
45392;SDS011;31129;44.810;10.334;2023-06-04T11:46:44;11.48;;;9.48;;
45392;SDS011;31129;44.810;10.334;2023-06-04T11:49:15;12.98;;;9.52;;
45392;SDS011;31129;44.810;10.334;2023-06-04T11:51:45;12.80;;;10.65;;
45392;SDS011;31129;44.810;10.334;2023-06-04T11:54:12;12.38;;;10.98;;
45392;SDS011;31129;44.810;10.334;2023-06-04T11:56:38;12.30;;;10.10;;
45392;SDS011;31129;44.810;10.334;2023-06-04T11:59:04;9.85;;;8.13;;
45392;SDS011;31129;44.810;10.334;2023-06-04T12:01:31;11.47;;;7.87;;
45392;SDS011;31129;44.810;10.334;2023-06-04T12:03:57;10.00;;;8.38;;
45392;SDS011;31129;44.810;10.334;2023-06-04T12:06:23;16.13;;;11.18;;
45392;SDS011;31129;44.810;10.334;2023-06-04T12:08:52;10.48;;;7.78;;
45392;SDS011;31129;44.810;10.334;2023-06-04T12:11:29;12.63;;;9.73;;
45392;SDS011;31129;44.810;10.334;2023-06-04T12:14:05;8.93;;;8.02;;
45392;SDS011;31129;44.810;10.334;2023-06-04T12:16:31;12.18;;;8.23;;
45392;SDS011;31129;44.810;10.334;2023-06-04T12:19:07;16.35;;;9.70;;
45392;SDS011;31129;44.810;10.334;2023-06-04T12:21:36;12.88;;;6.63;;
45392;SDS011;31129;44.810;10.334;2023-06-04T12:24:10;11.40;;;7.70;;
45392;SDS011;31129;44.810;10.334;2023-06-04T12:26:40;8.95;;;6.38;;
45392;SDS011;31129;44.810;10.334;2023-06-04T12:29:15;10.70;;;8.00;;
45392;SDS011;31129;44.810;10.334;2023-06-04T12:31:43;11.52;;;7.40;;
45392;SDS011;31129;44.810;10.334;2023-06-04T12:34:11;10.65;;;6.57;;
45392;SDS011;31129;44.810;10.334;2023-06-04T12:36:39;11.75;;;7.80;;
45392;SDS011;31129;44.810;10.334;2023-06-04T12:39:08;12.75;;;7.85;;
45392;SDS011;31129;44.810;10.334;2023-06-04T12:41:34;9.80;;;7.25;;
45392;SDS011;31129;44.810;10.334;2023-06-04T12:44:00;9.05;;;5.88;;
45392;SDS011;31129;44.810;10.334;2023-06-04T12:46:26;11.00;;;6.55;;
45392;SDS011;31129;44.810;10.334;2023-06-04T12:48:52;10.25;;;6.18;;
45392;SDS011;31129;44.810;10.334;2023-06-04T12:51:19;8.65;;;6.30;;
45392;SDS011;31129;44.810;10.334;2023-06-04T12:53:46;8.23;;;5.65;;
45392;SDS011;31129;44.810;10.334;2023-06-04T12:56:12;12.32;;;5.75;;
45392;SDS011;31129;44.810;10.334;2023-06-04T12:58:38;7.38;;;5.72;;
45392;SDS011;31129;44.810;10.334;2023-06-04T13:01:03;10.40;;;6.45;;
45392;SDS011;31129;44.810;10.334;2023-06-04T13:03:30;9.82;;;5.75;;
45392;SDS011;31129;44.810;10.334;2023-06-04T13:05:56;13.38;;;7.10;;
45392;SDS011;31129;44.810;10.334;2023-06-04T13:08:22;7.85;;;6.00;;
45392;SDS011;31129;44.810;10.334;2023-06-04T13:10:47;9.05;;;6.35;;
45392;SDS011;31129;44.810;10.334;2023-06-04T13:13:14;10.80;;;6.10;;
45392;SDS011;31129;44.810;10.334;2023-06-04T13:15:43;15.13;;;6.28;;
45392;SDS011;31129;44.810;10.334;2023-06-04T13:18:09;8.18;;;5.82;;
45392;SDS011;31129;44.810;10.334;2023-06-04T13:20:35;7.82;;;6.30;;
45392;SDS011;31129;44.810;10.334;2023-06-04T13:23:01;11.05;;;5.75;;
45392;SDS011;31129;44.810;10.334;2023-06-04T13:25:27;7.78;;;5.38;;
45392;SDS011;31129;44.810;10.334;2023-06-04T13:27:54;8.65;;;6.05;;
45392;SDS011;31129;44.810;10.334;2023-06-04T13:30:23;8.68;;;6.13;;
45392;SDS011;31129;44.810;10.334;2023-06-04T13:32:52;10.35;;;6.43;;
45392;SDS011;31129;44.810;10.334;2023-06-04T13:35:18;6.90;;;5.35;;
45392;SDS011;31129;44.810;10.334;2023-06-04T13:37:43;8.38;;;6.38;;
45392;SDS011;31129;44.810;10.334;2023-06-04T13:40:09;7.65;;;6.00;;
45392;SDS011;31129;44.810;10.334;2023-06-04T13:42:34;9.75;;;6.25;;
45392;SDS011;31129;44.810;10.334;2023-06-04T13:45:00;12.77;;;7.25;;
45392;SDS011;31129;44.810;10.334;2023-06-04T13:47:26;6.85;;;5.93;;
45392;SDS011;31129;44.810;10.334;2023-06-04T13:49:52;6.35;;;5.53;;
45392;SDS011;31129;44.810;10.334;2023-06-04T13:52:17;8.30;;;5.65;;
45392;SDS011;31129;44.810;10.334;2023-06-04T13:54:43;7.10;;;5.90;;
45392;SDS011;31129;44.810;10.334;2023-06-04T13:57:08;8.73;;;5.90;;
45392;SDS011;31129;44.810;10.334;2023-06-04T13:59:40;7.40;;;5.13;;
45392;SDS011;31129;44.810;10.334;2023-06-04T14:02:06;7.65;;;6.53;;
45392;SDS011;31129;44.810;10.334;2023-06-04T14:04:32;7.28;;;5.50;;
45392;SDS011;31129;44.810;10.334;2023-06-04T14:06:58;6.18;;;5.57;;
45392;SDS011;31129;44.810;10.334;2023-06-04T14:09:23;8.20;;;5.60;;
45392;SDS011;31129;44.810;10.334;2023-06-04T14:11:49;8.07;;;5.90;;
45392;SDS011;31129;44.810;10.334;2023-06-04T14:14:19;8.52;;;5.70;;
45392;SDS011;31129;44.810;10.334;2023-06-04T14:16:45;8.00;;;5.68;;
45392;SDS011;31129;44.810;10.334;2023-06-04T14:19:11;9.07;;;5.85;;
45392;SDS011;31129;44.810;10.334;2023-06-04T14:21:37;6.13;;;5.50;;
45392;SDS011;31129;44.810;10.334;2023-06-04T14:24:02;11.68;;;5.72;;
45392;SDS011;31129;44.810;10.334;2023-06-04T14:26:28;8.57;;;5.93;;
45392;SDS011;31129;44.810;10.334;2023-06-04T14:28:54;8.68;;;5.80;;